Time;durP1;ratioP1;P1;durP2;ratioP2;P2;SDS_P1;SDS_P2;PMS_P1;PMS_P2;Temp;Humidity;BMP_temperature;BMP_pressure;BME280_temperature;BME280_humidity;BME280_pressure;Samples;Min_cycle;Max_cycle;Signal;HPM_P1;HPM_P2
2022/11/12 00:00:49;;;;;;;8.52;4.38;;;;;;;10.03;71.92;99786.38;5033543;28;20080;-59
2022/11/12 00:03:14;;;;;;;8.57;5.00;;;;;;;10.04;72.31;99788.94;5034589;28;20033;-59
2022/11/12 00:05:40;;;;;;;6.45;4.70;;;;;;;9.99;72.35;99780.41;5033501;28;20068;-60
2022/11/12 00:08:05;;;;;;;5.68;4.40;;;;;;;9.96;72.56;99756.59;5016470;28;20037;-59
2022/11/12 00:10:31;;;;;;;5.68;4.25;;;;;;;9.98;72.82;99757.31;5033379;28;20076;-58
2022/11/12 00:12:56;;;;;;;7.65;4.40;;;;;;;9.96;73.13;99745.88;5033058;28;20083;-59
2022/11/12 00:15:22;;;;;;;7.65;4.00;;;;;;;9.88;73.53;99734.97;5033785;28;20067;-58
2022/11/12 00:17:47;;;;;;;5.35;4.03;;;;;;;9.91;73.42;99740.94;5043716;28;20041;-59
2022/11/12 00:20:13;;;;;;;4.65;3.60;;;;;;;9.88;73.69;99738.47;5052043;28;20036;-55
2022/11/12 00:22:38;;;;;;;5.80;4.40;;;;;;;9.85;73.55;99743.22;5053153;28;20033;-56
2022/11/12 00:25:04;;;;;;;5.35;3.90;;;;;;;9.83;74.07;99746.00;5053182;28;20076;-58
2022/11/12 00:27:34;;;;;;;5.85;3.88;;;;;;;9.82;74.19;99755.00;5044526;28;20091;-55
2022/11/12 00:29:59;;;;;;;7.65;4.18;;;;;;;9.78;74.54;99750.88;5033114;28;20090;-58
2022/11/12 00:32:25;;;;;;;6.07;3.90;;;;;;;9.78;74.43;99745.53;5032049;28;20456;-60
2022/11/12 00:34:50;;;;;;;4.93;4.25;;;;;;;9.76;74.55;99747.47;5032168;28;20513;-60
2022/11/12 00:37:17;;;;;;;6.55;3.88;;;;;;;9.77;74.72;99755.38;5038603;28;20136;-54
2022/11/12 00:39:43;;;;;;;6.43;4.13;;;;;;;9.78;74.52;99753.56;5052995;28;20344;-54
2022/11/12 00:42:09;;;;;;;4.32;3.90;;;;;;;9.81;74.70;99750.63;5052756;28;20103;-54
2022/11/12 00:44:35;;;;;;;7.10;4.22;;;;;;;9.83;74.84;99747.84;5052744;28;20157;-54
2022/11/12 00:47:00;;;;;;;8.05;4.30;;;;;;;9.82;74.26;99760.34;5045748;28;20025;-53
2022/11/12 00:49:26;;;;;;;5.32;4.18;;;;;;;9.69;74.53;99740.91;5032850;28;20336;-56
2022/11/12 00:51:51;;;;;;;5.63;4.43;;;;;;;9.81;75.15;99761.31;5031782;28;20040;-56
2022/11/12 00:54:17;;;;;;;7.30;5.28;;;;;;;9.79;75.08;99757.94;5033829;28;20503;-56
2022/11/12 00:56:45;;;;;;;5.28;4.38;;;;;;;9.82;75.41;99756.84;5035331;28;20052;-54
2022/11/12 00:59:10;;;;;;;6.05;4.50;;;;;;;9.81;75.43;99763.16;5051672;28;20441;-61
2022/11/12 01:01:36;;;;;;;6.85;4.22;;;;;;;9.72;75.11;99741.50;5052580;28;20059;-59
2022/11/12 01:04:02;;;;;;;8.13;4.70;;;;;;;9.79;75.25;99760.59;5051255;28;20071;-59
2022/11/12 01:06:27;;;;;;;7.72;5.05;;;;;;;9.74;75.57;99736.06;5047182;28;20329;-56
2022/11/12 01:08:54;;;;;;;5.97;4.85;;;;;;;9.73;75.72;99737.03;5032541;28;20354;-56
2022/11/12 01:11:29;;;;;;;8.05;5.03;;;;;;;9.77;76.20;99736.69;5032242;28;20403;-58
2022/11/12 01:13:57;;;;;;;6.47;4.88;;;;;;;9.78;75.93;99732.16;5033050;28;20131;-59
2022/11/12 01:16:26;;;;;;;8.10;5.10;;;;;;;9.74;75.77;99726.19;5036469;28;20025;-56
2022/11/12 01:19:01;;;;;;;6.90;4.63;;;;;;;9.81;75.86;99725.72;5052288;28;20043;-58
2022/11/12 01:21:30;;;;;;;7.65;4.90;;;;;;;9.81;75.69;99729.25;5049885;28;20029;-54
2022/11/12 01:24:00;;;;;;;4.95;4.35;;;;;;;9.87;75.42;99723.41;5051625;28;20029;-58
2022/11/12 01:26:29;;;;;;;9.32;5.05;;;;;;;9.79;75.60;99719.66;5044336;28;20053;-54
2022/11/12 01:28:55;;;;;;;5.90;4.25;;;;;;;9.83;75.13;99716.59;5032395;28;20036;-53
2022/11/12 01:31:25;;;;;;;7.38;4.70;;;;;;;9.86;75.29;99723.53;5032324;28;20029;-57
2022/11/12 01:33:58;;;;;;;5.85;4.30;;;;;;;9.91;75.42;99729.38;5032448;28;20126;-54
2022/11/12 01:36:25;;;;;;;7.88;4.55;;;;;;;9.67;75.31;99679.53;5039183;28;20028;-56
2022/11/12 01:38:52;;;;;;;6.90;5.05;;;;;;;9.88;75.54;99718.91;5051917;28;20112;-56
2022/11/12 01:41:24;;;;;;;7.28;4.80;;;;;;;9.90;75.71;99711.63;5052280;28;20020;-57
2022/11/12 01:44:10;;;;;;;6.72;4.88;;;;;;;10.02;75.94;99709.78;5051599;28;20049;-60
2022/11/12 01:46:42;;;;;;;7.15;4.55;;;;;;;9.98;75.49;99703.00;5040483;28;20443;-52
2022/11/12 01:49:13;;;;;;;6.80;4.55;;;;;;;9.96;75.80;99694.25;5051197;28;20135;-58
2022/11/12 01:51:43;;;;;;;6.45;4.85;;;;;;;9.97;75.49;99698.63;5052166;28;20051;-56
2022/11/12 01:54:11;;;;;;;6.90;4.80;;;;;;;9.99;75.10;99696.66;5049290;28;20416;-57
2022/11/12 01:56:37;;;;;;;7.55;4.82;;;;;;;9.86;75.61;99686.09;5039365;28;20040;-53
2022/11/12 01:59:18;;;;;;;6.70;4.50;;;;;;;10.01;75.77;99708.09;5036879;28;20038;-59
2022/11/12 02:01:44;;;;;;;6.38;5.28;;;;;;;9.91;75.51;99700.81;5032941;28;20033;-60
2022/11/12 02:04:10;;;;;;;5.53;4.65;;;;;;;9.90;75.96;99700.91;5031994;28;20341;-58
2022/11/12 02:06:38;;;;;;;7.35;4.55;;;;;;;9.89;76.00;99694.75;5031892;28;20034;-56
2022/11/12 02:09:04;;;;;;;7.45;4.30;;;;;;;9.86;75.84;99688.78;5042921;28;20443;-59
2022/11/12 02:11:29;;;;;;;6.80;4.85;;;;;;;9.85;76.29;99681.72;5033452;28;20048;-58
2022/11/12 02:14:02;;;;;;;6.07;4.65;;;;;;;9.85;76.13;99681.72;5035579;28;20409;-58
2022/11/12 02:16:39;;;;;;;6.68;4.72;;;;;;;9.87;76.47;99669.91;5035792;28;20032;-57
2022/11/12 02:19:09;;;;;;;10.35;4.65;;;;;;;9.83;76.46;99679.16;5049184;28;20091;-58
2022/11/12 02:21:35;;;;;;;7.82;4.55;;;;;;;9.80;76.56;99668.72;5055578;28;20407;-59
2022/11/12 02:24:02;;;;;;;7.07;4.38;;;;;;;9.80;76.83;99651.84;5055775;28;20044;-59
2022/11/12 02:26:34;;;;;;;9.57;4.70;;;;;;;9.87;76.72;99653.03;5055487;28;20048;-59
2022/11/12 02:29:00;;;;;;;5.18;4.47;;;;;;;9.84;76.74;99659.47;5041337;28;20037;-60
2022/11/12 02:31:26;;;;;;;9.23;4.70;;;;;;;9.81;76.98;99646.34;5035519;28;20067;-54
2022/11/12 02:33:52;;;;;;;5.80;4.22;;;;;;;9.88;76.60;99642.19;5035273;28;20053;-57
2022/11/12 02:36:18;;;;;;;6.80;4.25;;;;;;;9.89;76.39;99649.28;5034041;28;20392;-56
2022/11/12 02:38:43;;;;;;;6.90;4.45;;;;;;;9.89;76.80;99662.66;5044578;28;20029;-55
2022/11/12 02:41:08;;;;;;;5.38;4.40;;;;;;;9.88;76.42;99639.53;5055073;28;20095;-60
2022/11/12 02:43:34;;;;;;;5.00;3.78;;;;;;;9.90;76.44;99640.28;5054726;28;20060;-62
2022/11/12 02:45:59;;;;;;;7.05;3.92;;;;;;;9.92;76.02;99640.13;5042408;28;20076;-55
2022/11/12 02:48:25;;;;;;;7.75;4.32;;;;;;;9.95;76.13;99644.41;5042625;28;20108;-55
2022/11/12 02:50:50;;;;;;;4.47;3.70;;;;;;;9.98;76.08;99644.16;5054821;28;20064;-54
2022/11/12 02:53:16;;;;;;;4.38;3.97;;;;;;;10.01;76.41;99639.41;5053091;28;20060;-56
2022/11/12 02:55:42;;;;;;;4.50;3.80;;;;;;;10.01;75.92;99649.25;5053971;28;20485;-56
2022/11/12 02:58:07;;;;;;;6.20;3.80;;;;;;;10.05;75.98;99645.34;5049274;28;20084;-56
2022/11/12 03:00:33;;;;;;;4.38;3.67;;;;;;;10.03;76.13;99649.97;5034889;28;20025;-57
2022/11/12 03:02:58;;;;;;;4.10;3.60;;;;;;;10.07;75.48;99654.09;5034836;28;20071;-55
2022/11/12 03:05:25;;;;;;;4.57;3.58;;;;;;;9.95;75.45;99629.19;5045024;28;20061;-56
2022/11/12 03:07:56;;;;;;;4.22;2.97;;;;;;;10.11;75.60;99644.84;5036617;28;20120;-58
2022/11/12 03:10:21;;;;;;;4.60;3.28;;;;;;;10.10;75.37;99643.13;5054188;28;20037;-56
2022/11/12 03:12:47;;;;;;;4.38;3.25;;;;;;;10.11;74.99;99634.13;5054502;28;20025;-54
2022/11/12 03:15:12;;;;;;;4.35;3.33;;;;;;;10.13;75.32;99637.56;5054268;28;20029;-54
2022/11/12 03:17:37;;;;;;;4.60;3.38;;;;;;;10.12;75.27;99641.19;5053823;28;20032;-58
2022/11/12 03:20:03;;;;;;;4.57;3.20;;;;;;;10.16;74.79;99639.97;5034912;28;20032;-57
2022/11/12 03:22:29;;;;;;;4.30;3.28;;;;;;;10.13;74.89;99634.03;5034330;28;20033;-56
2022/11/12 03:24:54;;;;;;;6.28;3.78;;;;;;;10.12;75.44;99622.44;5034380;28;20040;-56
2022/11/12 03:27:20;;;;;;;5.63;3.70;;;;;;;10.12;74.95;99601.06;5034534;28;20026;-57
2022/11/12 03:29:45;;;;;;;3.85;3.40;;;;;;;9.98;75.04;99569.25;5052044;28;20040;-53
2022/11/12 03:32:11;;;;;;;4.80;3.53;;;;;;;10.17;75.08;99598.88;5054070;28;20035;-53
2022/11/12 03:34:36;;;;;;;5.05;3.75;;;;;;;10.12;75.48;99593.03;5054520;28;20466;-61
2022/11/12 03:37:02;;;;;;;5.50;4.15;;;;;;;10.14;75.39;99606.28;5054389;28;20407;-58
2022/11/12 03:39:27;;;;;;;6.55;3.85;;;;;;;10.26;74.80;99613.31;5038219;28;20383;-59
2022/11/12 03:41:53;;;;;;;3.78;3.33;;;;;;;10.17;74.92;99606.91;5033716;28;20049;-55
2022/11/12 03:44:19;;;;;;;4.40;3.58;;;;;;;10.02;74.94;99581.41;5044196;28;20037;-57
2022/11/12 03:46:44;;;;;;;4.63;3.65;;;;;;;10.25;75.02;99608.06;5053634;28;20146;-57
2022/11/12 03:49:10;;;;;;;4.43;3.25;;;;;;;9.82;75.18;99559.81;5040825;28;20563;-56
2022/11/12 03:51:35;;;;;;;5.32;3.50;;;;;;;10.09;75.37;99603.16;5033944;28;20025;-52
2022/11/12 03:54:00;;;;;;;4.65;3.40;;;;;;;10.23;74.82;99612.72;5034048;28;20026;-56
2022/11/12 03:56:26;;;;;;;6.03;3.78;;;;;;;10.20;75.27;99603.09;5032809;28;20056;-54
2022/11/12 03:58:51;;;;;;;5.85;3.92;;;;;;;10.19;74.96;99604.06;5042561;28;20039;-56
2022/11/12 04:01:17;;;;;;;4.95;3.40;;;;;;;10.21;74.90;99607.47;5053561;28;20428;-56
2022/11/12 04:03:42;;;;;;;6.72;3.55;;;;;;;10.25;75.05;99603.59;5037603;28;20037;-55
2022/11/12 04:08:51;;;;;;;4.43;3.55;;;;;;;10.25;74.77;99586.69;5042699;28;20100;-55
2022/11/12 04:11:17;;;;;;;6.32;3.22;;;;;;;10.23;75.01;99594.81;5053161;28;20060;-58
2022/11/12 04:13:46;;;;;;;4.55;3.35;;;;;;;10.18;75.30;99581.84;5051525;28;20029;-53
2022/11/12 04:22:05;;;;;;;3.55;3.25;;;;;;;10.33;75.43;99571.69;5033189;28;20042;-58
2022/11/12 04:27:29;;;;;;;4.38;3.10;;;;;;;10.29;75.35;99567.56;5034172;28;20044;-55
2022/11/12 04:32:51;;;;;;;4.40;2.97;;;;;;;10.34;75.00;99570.69;5053379;28;20072;-54
2022/11/12 04:35:18;;;;;;;4.95;3.20;;;;;;;10.30;75.01;99579.09;5052721;28;20025;-59
2022/11/12 04:37:43;;;;;;;4.22;2.78;;;;;;;10.31;74.92;99575.44;5048795;28;20448;-52
2022/11/12 04:45:39;;;;;;;4.10;2.83;;;;;;;10.35;75.17;99558.16;5033161;28;20087;-58
2022/11/12 04:48:05;;;;;;;2.92;2.38;;;;;;;10.48;73.98;99563.34;5038927;28;20056;-58
2022/11/12 04:50:30;;;;;;;3.72;2.90;;;;;;;10.31;74.49;99548.69;5051964;28;20061;-59
2022/11/12 04:52:56;;;;;;;3.88;2.80;;;;;;;10.35;74.53;99539.41;5052643;28;20029;-59
2022/11/12 04:55:21;;;;;;;4.03;2.85;;;;;;;10.34;74.32;99546.63;5052659;28;20068;-57
2022/11/12 04:57:46;;;;;;;2.80;2.50;;;;;;;10.34;74.26;99554.66;5050650;28;20029;-61
2022/11/12 05:00:12;;;;;;;4.07;2.97;;;;;;;10.34;74.50;99549.28;5035295;28;20060;-60
2022/11/12 05:02:38;;;;;;;2.80;2.35;;;;;;;10.38;74.38;99549.91;5032826;28;20360;-54
2022/11/12 05:05:03;;;;;;;3.50;2.67;;;;;;;10.39;74.62;99559.63;5032772;28;20033;-56
2022/11/12 05:07:31;;;;;;;3.28;2.58;;;;;;;10.44;74.42;99557.44;5032538;28;20154;-58
2022/11/12 05:09:56;;;;;;;3.65;2.40;;;;;;;10.50;74.26;99549.84;5052427;28;20403;-56
2022/11/12 05:12:22;;;;;;;2.72;2.30;;;;;;;10.51;74.48;99546.19;5051762;28;20064;-57
2022/11/12 05:14:47;;;;;;;3.60;2.75;;;;;;;10.55;73.95;99555.66;5032543;28;20052;-59
2022/11/12 05:17:13;;;;;;;3.45;2.40;;;;;;;10.50;73.85;99536.47;5031486;28;20104;-68
2022/11/12 05:19:39;;;;;;;3.80;2.65;;;;;;;10.59;74.06;99546.38;5038318;28;20025;-59
2022/11/12 05:22:04;;;;;;;3.88;2.38;;;;;;;10.54;73.81;99551.28;5051638;28;20044;-59
2022/11/12 05:24:38;;;;;;;4.82;2.65;;;;;;;10.56;74.14;99557.34;5052299;28;20025;-58
2022/11/12 05:27:07;;;;;;;2.72;2.40;;;;;;;10.56;74.15;99546.66;5052242;28;20068;-59
2022/11/12 05:29:33;;;;;;;2.60;2.40;;;;;;;10.57;74.31;99549.22;5033943;28;20860;-60
2022/11/12 05:31:58;;;;;;;3.53;2.47;;;;;;;10.55;73.73;99545.81;5031638;28;20025;-60
2022/11/12 05:34:23;;;;;;;2.70;2.33;;;;;;;10.44;73.95;99517.28;5036969;28;20030;-52
2022/11/12 05:36:49;;;;;;;3.17;2.60;;;;;;;10.62;73.91;99555.00;5040907;28;20036;-57
2022/11/12 05:39:14;;;;;;;2.97;2.35;;;;;;;10.67;73.33;99548.41;5042588;28;20438;-58
2022/11/12 05:41:40;;;;;;;2.53;2.17;;;;;;;10.66;73.20;99536.88;5040829;28;20030;-66
2022/11/12 05:44:05;;;;;;;3.45;2.20;;;;;;;10.70;73.60;99540.97;5025930;28;20116;-50
2022/11/12 05:46:31;;;;;;;6.20;2.03;;;;;;;10.72;73.51;99536.31;5042933;28;20103;-53
2022/11/12 05:48:56;;;;;;;3.25;2.30;;;;;;;10.78;73.00;99537.63;5046031;28;20061;-53
2022/11/12 05:51:22;;;;;;;2.83;2.00;;;;;;;10.77;73.01;99531.41;5044729;28;20065;-62
2022/11/12 05:53:47;;;;;;;2.88;2.03;;;;;;;10.82;73.05;99535.53;5044879;28;20029;-57
2022/11/12 05:56:13;;;;;;;3.30;2.22;;;;;;;10.84;72.99;99529.06;5046322;28;20034;-58
2022/11/12 05:58:38;;;;;;;5.03;2.53;;;;;;;10.88;72.68;99530.50;5043502;28;20448;-55
2022/11/12 06:01:04;;;;;;;4.05;2.15;;;;;;;10.91;72.62;99542.78;5046465;28;20841;-55
2022/11/12 06:03:31;;;;;;;2.20;1.83;;;;;;;10.88;72.85;99546.56;5045432;28;20025;-53
2022/11/12 06:05:56;;;;;;;6.90;2.08;;;;;;;10.94;72.70;99545.19;5044442;28;20090;-59
2022/11/12 06:08:22;;;;;;;2.58;1.90;;;;;;;10.96;72.55;99543.22;5044746;28;20045;-59
2022/11/12 06:10:52;;;;;;;2.58;1.98;;;;;;;10.94;72.51;99522.91;5045185;28;20100;-61
2022/11/12 06:13:18;;;;;;;2.55;1.83;;;;;;;10.98;72.34;99525.19;5043458;28;20082;-60
2022/11/12 06:15:44;;;;;;;1.92;1.70;;;;;;;11.05;72.31;99537.06;5035321;28;20034;-61
2022/11/12 06:18:10;;;;;;;3.53;2.10;;;;;;;11.03;72.10;99528.31;5039641;28;20074;-55
2022/11/12 06:20:35;;;;;;;2.13;1.73;;;;;;;11.11;72.27;99529.47;5054759;28;20107;-59
2022/11/12 06:23:01;;;;;;;3.67;1.75;;;;;;;11.15;72.05;99525.53;5055595;28;20021;-57
2022/11/12 06:25:27;;;;;;;2.55;2.00;;;;;;;11.14;71.82;99507.78;5053497;28;20379;-55
2022/11/12 06:27:53;;;;;;;2.05;1.70;;;;;;;11.16;71.81;99505.81;5053140;28;20033;-56
2022/11/12 06:30:18;;;;;;;2.92;1.77;;;;;;;11.22;71.66;99509.78;5035380;28;20087;-55
2022/11/12 06:32:48;;;;;;;2.05;1.63;;;;;;;11.24;71.58;99511.31;5035758;28;20028;-61
2022/11/12 06:35:14;;;;;;;2.53;1.80;;;;;;;11.29;71.75;99524.31;5048667;28;20033;-58
2022/11/12 06:37:40;;;;;;;4.32;1.75;;;;;;;11.32;71.41;99516.84;5054311;28;20064;-64
2022/11/12 06:40:06;;;;;;;1.98;1.60;;;;;;;11.42;71.10;99513.34;5043955;28;20056;-62
2022/11/12 06:42:31;;;;;;;4.05;2.03;;;;;;;11.45;71.21;99515.75;5045711;28;20051;-62
2022/11/12 06:44:57;;;;;;;3.83;2.00;;;;;;;11.52;70.54;99502.66;5043773;28;20481;-62
2022/11/12 06:47:22;;;;;;;3.50;2.30;;;;;;;11.40;70.50;99475.97;5044691;28;20036;-63
2022/11/12 06:49:48;;;;;;;2.47;1.70;;;;;;;11.62;70.46;99500.84;5053160;28;20384;-65
2022/11/12 06:52:14;;;;;;;1.60;1.50;;;;;;;11.68;70.11;99499.44;5041725;28;20805;-63
2022/11/12 06:54:40;;;;;;;1.50;1.40;;;;;;;11.63;70.43;99498.03;5054163;28;20379;-63
2022/11/12 06:57:05;;;;;;;1.42;1.33;;;;;;;11.66;70.67;99486.16;5051588;28;20044;-64
2022/11/12 06:59:31;;;;;;;1.60;1.50;;;;;;;11.73;70.50;99487.31;5039326;28;20034;-63
2022/11/12 07:01:56;;;;;;;1.50;1.40;;;;;;;11.75;70.37;99482.66;5034210;28;20072;-70
2022/11/12 07:04:23;;;;;;;1.73;1.30;;;;;;;11.77;70.05;99464.59;5043274;28;20082;-63
2022/11/12 07:06:48;;;;;;;3.38;1.40;;;;;;;12.02;69.23;99481.13;5053689;28;20037;-64
2022/11/12 07:09:14;;;;;;;1.88;1.20;;;;;;;12.04;69.13;99472.94;5051014;28;20410;-63
2022/11/12 07:11:39;;;;;;;2.42;1.08;;;;;;;12.04;69.05;99472.94;5030454;28;20030;-64
2022/11/12 07:14:05;;;;;;;2.33;1.38;;;;;;;12.02;69.40;99469.53;5043213;28;20033;-63
2022/11/12 07:16:32;;;;;;;3.22;1.38;;;;;;;12.01;69.35;99455.28;5045099;28;20028;-64
2022/11/12 07:18:57;;;;;;;2.83;1.58;;;;;;;12.15;68.99;99442.41;5043150;28;20029;-63
2022/11/12 07:21:23;;;;;;;2.05;1.40;;;;;;;12.23;68.74;99436.31;5045053;28;20025;-66
2022/11/12 07:23:48;;;;;;;2.95;1.38;;;;;;;12.28;68.03;99417.94;5037289;28;20040;-63
2022/11/12 07:26:20;;;;;;;1.83;0.98;;;;;;;12.05;68.13;99388.75;5034534;28;20117;-65
2022/11/12 07:28:45;;;;;;;2.67;1.20;;;;;;;12.18;68.23;99432.25;5050925;28;20197;-63
2022/11/12 07:31:13;;;;;;;2.05;0.90;;;;;;;12.17;68.16;99419.81;5053045;28;20480;-64
2022/11/12 07:33:38;;;;;;;3.70;1.20;;;;;;;12.09;68.31;99406.28;5052532;28;20036;-64
2022/11/12 07:36:09;;;;;;;1.88;1.33;;;;;;;12.12;68.55;99389.91;5036364;28;20029;-63
2022/11/12 07:38:37;;;;;;;5.63;1.30;;;;;;;12.24;68.12;99416.53;5047431;28;20042;-63
2022/11/12 07:41:04;;;;;;;4.07;1.00;;;;;;;12.25;67.78;99397.63;5038471;28;20440;-65
2022/11/12 07:43:32;;;;;;;1.27;1.00;;;;;;;12.20;68.44;99405.28;5043190;28;20152;-64
2022/11/12 07:45:59;;;;;;;1.20;1.00;;;;;;;12.13;68.33;99398.78;5042917;28;20049;-64
2022/11/12 07:48:24;;;;;;;2.80;1.30;;;;;;;11.96;68.30;99362.78;5037712;28;20075;-63
2022/11/12 07:50:49;;;;;;;2.45;1.20;;;;;;;12.12;68.40;99392.56;5041818;28;20033;-71
2022/11/12 07:53:15;;;;;;;2.72;1.27;;;;;;;12.17;68.36;99392.97;5053692;28;20033;-63
2022/11/12 07:55:40;;;;;;;3.85;1.30;;;;;;;12.19;68.57;99406.28;5052320;28;20470;-65
2022/11/12 07:58:06;;;;;;;2.83;1.10;;;;;;;12.07;68.54;99370.69;5052315;28;20029;-64
2022/11/12 08:00:31;;;;;;;3.95;0.88;;;;;;;12.23;68.25;99379.97;5033677;28;20204;-63
2022/11/12 08:03:00;;;;;;;1.80;1.08;;;;;;;12.16;68.18;99375.19;5033503;28;20152;-64
2022/11/12 08:05:25;;;;;;;3.08;1.13;;;;;;;12.33;68.07;99396.91;5033304;28;20036;-63
2022/11/12 08:07:54;;;;;;;3.95;1.20;;;;;;;12.41;67.92;99380.91;5033761;28;20355;-69
2022/11/12 08:10:19;;;;;;;2.40;1.10;;;;;;;12.51;67.69;99388.94;5034565;28;20079;-64
2022/11/12 08:12:45;;;;;;;1.40;1.08;;;;;;;12.53;67.36;99378.88;5032442;28;20033;-63
2022/11/12 08:15:10;;;;;;;1.77;1.20;;;;;;;12.57;67.13;99371.38;5033590;28;20411;-63
2022/11/12 08:17:39;;;;;;;2.25;1.25;;;;;;;12.58;67.41;99363.16;5033595;28;20037;-64
2022/11/12 08:20:05;;;;;;;4.13;1.65;;;;;;;12.56;67.14;99359.78;5050107;28;20036;-64
2022/11/12 08:22:31;;;;;;;4.07;1.20;;;;;;;12.63;67.12;99355.50;5051422;28;20478;-64
2022/11/12 08:24:56;;;;;;;1.83;1.05;;;;;;;12.62;66.97;99352.97;5050590;28;20029;-64
2022/11/12 08:27:22;;;;;;;1.80;1.35;;;;;;;12.59;67.27;99358.66;5050415;28;20536;-69
2022/11/12 08:29:47;;;;;;;1.92;1.20;;;;;;;12.51;67.62;99345.97;5038640;28;20064;-63
2022/11/12 08:32:14;;;;;;;2.33;0.90;;;;;;;12.53;67.59;99327.00;5036478;28;20061;-66
2022/11/12 08:34:40;;;;;;;2.25;1.10;;;;;;;12.55;67.14;99317.81;5043057;28;20038;-64
2022/11/12 08:37:06;;;;;;;2.60;1.30;;;;;;;12.54;67.28;99323.31;5033134;28;20079;-66
2022/11/12 08:39:31;;;;;;;1.58;1.00;;;;;;;12.54;67.49;99309.91;5043548;28;20371;-65
2022/11/12 08:41:57;;;;;;;2.00;1.00;;;;;;;12.59;67.13;99313.00;5053021;28;20072;-64
2022/11/12 08:44:22;;;;;;;1.75;1.30;;;;;;;12.69;67.15;99305.72;5053215;28;20116;-74
2022/11/12 08:46:49;;;;;;;2.22;1.23;;;;;;;12.65;66.74;99304.34;5053028;28;20032;-64
2022/11/12 08:49:16;;;;;;;1.88;1.08;;;;;;;12.70;66.70;99295.84;5039064;28;20053;-64
2022/11/12 08:51:41;;;;;;;1.50;1.25;;;;;;;12.77;66.63;99297.75;5033880;28;20127;-63
2022/11/12 08:54:06;;;;;;;1.20;1.00;;;;;;;12.87;66.01;99295.00;5032683;28;20109;-65
2022/11/12 08:56:32;;;;;;;2.85;1.08;;;;;;;12.94;66.05;99303.31;5032706;28;20116;-64
2022/11/12 08:58:58;;;;;;;2.55;0.90;;;;;;;12.91;65.77;99303.59;5043465;28;20048;-63
2022/11/12 09:01:24;;;;;;;2.85;1.08;;;;;;;12.86;66.31;99300.53;5052719;28;20036;-66
2022/11/12 09:03:49;;;;;;;3.17;1.38;;;;;;;12.60;66.83;99258.28;5051792;28;20063;-69
2022/11/12 09:06:15;;;;;;;1.88;1.20;;;;;;;12.64;67.23;99259.69;5050958;28;20131;-65
2022/11/12 09:08:40;;;;;;;7.63;1.17;;;;;;;12.63;67.17;99263.34;5043646;28;20021;-69
2022/11/12 09:11:06;;;;;;;2.03;0.80;;;;;;;12.58;67.38;99265.66;5032726;28;20488;-63
2022/11/12 09:13:32;;;;;;;2.53;1.00;;;;;;;12.49;67.47;99254.81;5032013;28;20511;-64
2022/11/12 09:16:03;;;;;;;1.65;0.90;;;;;;;12.45;67.93;99255.28;5031628;28;20033;-64
2022/11/12 09:18:29;;;;;;;1.20;1.10;;;;;;;12.44;68.30;99249.06;5014851;28;20045;-64
2022/11/12 09:20:59;;;;;;;3.22;1.05;;;;;;;12.50;68.15;99244.94;5030739;28;20363;-66
2022/11/12 09:23:25;;;;;;;3.38;1.30;;;;;;;12.45;68.21;99240.00;5032674;28;20032;-64
2022/11/12 09:25:50;;;;;;;1.98;1.30;;;;;;;12.39;68.17;99229.88;5030881;28;20037;-64
2022/11/12 09:28:17;;;;;;;0.95;0.90;;;;;;;12.41;68.33;99227.88;5037572;28;20033;-64
2022/11/12 09:30:48;;;;;;;1.60;1.20;;;;;;;12.38;68.57;99205.84;5038526;28;20037;-64
2022/11/12 09:33:18;;;;;;;1.67;0.88;;;;;;;12.34;68.34;99199.97;5051135;28;20025;-64
2022/11/12 09:35:44;;;;;;;2.47;1.25;;;;;;;12.38;68.51;99211.22;5051545;28;20128;-64
2022/11/12 09:38:11;;;;;;;2.63;1.10;;;;;;;12.37;68.61;99204.16;5046573;28;20116;-64
2022/11/12 09:40:51;;;;;;;1.58;0.98;;;;;;;12.48;68.80;99191.38;5032162;28;20034;-63
2022/11/12 09:43:17;;;;;;;1.95;1.10;;;;;;;12.36;69.06;99184.53;5051093;28;20045;-64
2022/11/12 09:45:44;;;;;;;3.15;1.30;;;;;;;12.36;68.86;99187.22;5051582;28;20037;-64
2022/11/12 09:48:13;;;;;;;1.95;1.10;;;;;;;12.39;68.83;99175.31;5045008;28;20060;-64
2022/11/12 09:50:49;;;;;;;1.27;1.15;;;;;;;12.38;68.74;99155.69;5047420;28;20455;-65
2022/11/12 09:53:24;;;;;;;3.22;1.30;;;;;;;12.46;68.76;99157.63;5052295;28;20068;-64
2022/11/12 09:55:50;;;;;;;3.15;1.60;;;;;;;12.38;68.67;99155.69;5050348;28;20041;-67
2022/11/12 09:58:18;;;;;;;1.55;1.00;;;;;;;12.40;68.53;99144.78;5033275;28;20336;-64
2022/11/12 10:01:12;;;;;;;1.35;1.00;;;;;;;12.49;68.83;99142.03;5030941;28;20025;-65
2022/11/12 10:04:00;;;;;;;3.42;1.10;;;;;;;12.57;68.18;99141.28;5032035;28;20040;-64
2022/11/12 10:06:33;;;;;;;1.00;0.90;;;;;;;12.62;67.69;99128.22;5032520;28;20033;-73
2022/11/12 10:08:58;;;;;;;2.95;1.05;;;;;;;12.68;67.59;99116.03;5033154;28;20046;-67
2022/11/12 10:14:55;;;;;;;1.42;1.00;;;;;;;12.80;67.42;99119.31;5050814;28;20029;-64
2022/11/12 10:17:40;;;;;;;1.42;1.08;;;;;;;12.71;67.67;99110.34;5050421;28;20032;-63
2022/11/12 10:20:32;;;;;;;2.03;0.95;;;;;;;12.71;67.70;99107.66;5045881;28;20090;-62
2022/11/12 10:23:04;;;;;;;1.58;0.73;;;;;;;12.63;67.57;99121.03;5031497;28;20060;-64
2022/11/12 10:25:31;;;;;;;2.25;1.00;;;;;;;12.59;67.93;99106.22;5031159;28;20397;-62
2022/11/12 10:27:57;;;;;;;1.92;1.20;;;;;;;12.62;67.67;99106.75;5014323;28;20061;-72
2022/11/12 10:30:24;;;;;;;3.17;1.20;;;;;;;12.65;67.92;99105.59;5030756;28;20033;-63
2022/11/12 10:32:51;;;;;;;0.98;0.90;;;;;;;12.59;67.69;99092.81;5033848;28;20439;-62
2022/11/12 10:35:19;;;;;;;1.63;1.17;;;;;;;12.62;67.86;99096.00;5034747;28;20037;-64
2022/11/12 10:38:05;;;;;;;3.17;1.27;;;;;;;12.84;68.00;99106.44;5034857;28;20040;-63
2022/11/12 10:40:37;;;;;;;1.17;1.08;;;;;;;12.80;67.75;99103.19;5033805;28;20029;-64
2022/11/12 10:43:04;;;;;;;2.88;0.80;;;;;;;12.83;67.78;99096.69;5033578;28;20453;-64
2022/11/12 10:45:31;;;;;;;1.35;1.10;;;;;;;12.74;67.93;99075.13;5045245;28;20048;-64
2022/11/12 10:47:58;;;;;;;2.70;1.13;;;;;;;12.90;67.43;99084.31;5055012;28;20427;-63
2022/11/12 10:50:23;;;;;;;3.15;1.00;;;;;;;12.97;66.90;99081.84;5055059;28;20486;-64
2022/11/12 10:53:10;;;;;;;0.80;0.70;;;;;;;13.07;67.22;99077.19;5054462;28;20061;-63
2022/11/12 10:55:53;;;;;;;2.00;0.95;;;;;;;12.94;67.18;99082.16;5041886;28;20471;-64
2022/11/12 10:58:19;;;;;;;1.42;0.80;;;;;;;12.87;67.33;99076.56;5034566;28;20156;-64
2022/11/12 11:01:11;;;;;;;1.83;0.77;;;;;;;12.92;67.95;99074.22;5034866;28;20036;-64
2022/11/12 11:03:46;;;;;;;1.00;0.90;;;;;;;12.70;68.71;99059.50;5034679;28;20033;-63
2022/11/12 11:06:15;;;;;;;0.82;0.73;;;;;;;12.71;68.62;99066.53;5050107;28;20098;-63
2022/11/12 11:08:46;;;;;;;2.00;1.00;;;;;;;12.64;69.25;99069.00;5054637;28;20102;-63
2022/11/12 11:11:26;;;;;;;1.30;0.93;;;;;;;12.57;69.77;99060.72;5054590;28;20025;-64
2022/11/12 11:13:55;;;;;;;3.75;1.00;;;;;;;12.19;70.39;99007.22;5054381;28;20044;-63
2022/11/12 11:16:26;;;;;;;2.00;0.90;;;;;;;12.25;71.21;99035.31;5036257;28;20060;-63
2022/11/12 11:18:55;;;;;;;0.85;0.80;;;;;;;12.25;71.54;99029.94;5034666;28;20040;-63
2022/11/12 11:21:49;;;;;;;2.38;1.02;;;;;;;12.31;71.39;99017.75;5034021;28;20500;-64
2022/11/12 11:24:36;;;;;;;1.48;0.80;;;;;;;12.27;71.69;99008.28;5035162;28;20131;-63
2022/11/12 11:27:10;;;;;;;2.05;0.70;;;;;;;12.26;71.42;98998.56;5034353;28;20095;-64
2022/11/12 11:29:48;;;;;;;2.80;1.50;;;;;;;12.17;71.83;98995.81;5034087;28;20041;-62
2022/11/12 11:32:32;;;;;;;5.93;2.05;;;;;;;12.31;71.70;98996.28;5045373;28;20066;-63
2022/11/12 11:35:16;;;;;;;3.15;1.00;;;;;;;12.33;71.57;98973.63;5052720;28;20426;-63
2022/11/12 11:37:59;;;;;;;2.40;1.00;;;;;;;12.31;71.30;98972.13;5052540;28;20032;-63
2022/11/12 11:40:34;;;;;;;2.75;1.00;;;;;;;12.24;71.55;98954.94;5054038;28;20033;-63
2022/11/12 11:43:06;;;;;;;2.08;1.15;;;;;;;12.15;71.51;98952.19;5053331;28;20052;-62
2022/11/12 11:45:58;;;;;;;1.20;0.90;;;;;;;12.18;72.44;98948.38;5053824;28;20483;-70
2022/11/12 11:48:49;;;;;;;2.00;0.90;;;;;;;12.23;72.22;98961.28;5039620;28;20445;-63
2022/11/12 11:51:48;;;;;;;1.92;0.85;;;;;;;12.22;72.65;98946.19;5033610;28;20034;-63
2022/11/12 11:54:51;;;;;;;2.25;0.88;;;;;;;12.21;72.56;98929.25;5032802;28;20060;-63
2022/11/12 11:57:58;;;;;;;4.10;1.20;;;;;;;12.23;72.25;98916.53;5032713;28;20059;-63
2022/11/12 12:00:30;;;;;;;1.58;0.90;;;;;;;12.13;72.37;98916.63;5033446;28;20425;-63
2022/11/12 12:03:38;;;;;;;0.82;0.68;;;;;;;12.19;72.52;98897.22;5046306;28;20052;-65
2022/11/12 12:06:23;;;;;;;1.73;1.20;;;;;;;12.18;72.48;98905.44;5033094;28;20049;-64